M/V Tuna — XUGC9 — position and weather

sailwx.info

Track history (hours):
 
Tides and Currents Weather Stations Pressure Air Temp Water Temp Dewpoint Dewpoint Depression Visibility Wind Speed Wind Dir Waves Ship Positions

M/V Tuna

Last reported at 2014-Jul-24 10:28 UTC. Time now 2014-Jul-25 09:08 UTC.
Position N 40°45' E 029°29'.

Length 114 m; draft 3.6 m.

Type: Cargo ship. MMSI: 514778000.

Date/timePositionNaut miles runAvg speedWind from/ knotsBaromVisibWave heightAir tempDewpointWater temp
2014-Jul-24 10:28N 40°45' E 029°29'2 1.1
2014-Jul-24 08:29N 40°46' E 029°26'0 0.0
2014-Jul-24 03:25N 40°46' E 029°26'0 0.0
2014-Jul-24 02:19N 40°46' E 029°26'0 0.0
2014-Jul-24 00:06N 40°46' E 029°26'0 0.0
2014-Jul-23 23:12N 40°46' E 029°26'0 0.0
2014-Jul-23 05:16N 40°46' E 029°26'3 4.5
2014-Jul-23 04:33N 40°44' E 029°23'5 4.9
2014-Jul-23 03:33N 40°45' E 029°16'7 6.8
2014-Jul-23 02:30N 40°48' E 029°08'7 6.6
2014-Jul-23 01:30N 40°50' E 028°60'6 6.6
2014-Jul-23 00:33N 40°56' E 028°56'  
2014-Jul-14 18:05N 41°42' E 036°09'13 7.3
2014-Jul-14 16:18N 41°35' E 036°24'6 7.5
2014-Jul-14 15:33N 41°32' E 036°30'  
Track history (hours):
 
Tides and Currents Weather Stations Pressure Air Temp Water Temp Dewpoint Dewpoint Depression Visibility Wind Speed Wind Dir Waves Ship Positions

M/V Tuna

Last reported at 2014-Jul-24 10:28 UTC. Time now 2014-Jul-25 09:08 UTC.
Position N 40°45' E 029°29'.

Length 114 m; draft 3.6 m.

Type: Cargo ship. MMSI: 514778000.

Date/timePositionNaut miles runAvg speedWind from/ knotsBaromVisibWave heightAir tempDewpointWater temp
2014-Jul-24 10:28N 40°45' E 029°29'2 1.1
2014-Jul-24 08:29N 40°46' E 029°26'0 0.0
2014-Jul-24 03:25N 40°46' E 029°26'0 0.0
2014-Jul-24 02:19N 40°46' E 029°26'0 0.0
2014-Jul-24 00:06N 40°46' E 029°26'0 0.0
2014-Jul-23 23:12N 40°46' E 029°26'0 0.0
2014-Jul-23 05:16N 40°46' E 029°26'3 4.5
2014-Jul-23 04:33N 40°44' E 029°23'5 4.9
2014-Jul-23 03:33N 40°45' E 029°16'7 6.8
2014-Jul-23 02:30N 40°48' E 029°08'7 6.6
2014-Jul-23 01:30N 40°50' E 028°60'6 6.6
2014-Jul-23 00:33N 40°56' E 028°56'  
2014-Jul-14 18:05N 41°42' E 036°09'13 7.3
2014-Jul-14 16:18N 41°35' E 036°24'6 7.5
2014-Jul-14 15:33N 41°32' E 036°30'  

Dump ship's entire track history